createdAt,value
2023-09-06T00:00:58.542Z,76.78
2023-09-06T00:01:56.066Z,76.83
2023-09-06T00:02:55.555Z,76.90
2023-09-06T00:03:56.181Z,76.96
2023-09-06T00:04:54.945Z,76.79
2023-09-06T00:05:53.885Z,76.73
2023-09-06T00:06:54.576Z,76.94
2023-09-06T00:07:54.083Z,77.02
2023-09-06T00:08:53.871Z,77.05
2023-09-06T00:09:54.592Z,77.05
2023-09-06T00:10:57.292Z,77.03
2023-09-06T00:11:54.379Z,77.01
2023-09-06T00:12:54.455Z,77.07
2023-09-06T00:13:54.253Z,77.21
2023-09-06T00:14:54.591Z,77.19
2023-09-06T00:15:54.621Z,77.32
2023-09-06T00:16:54.370Z,77.33
2023-09-06T00:17:53.778Z,77.18
2023-09-06T00:18:54.948Z,77.19
2023-09-06T00:19:54.351Z,77.14
2023-09-06T00:20:54.881Z,77.20
2023-09-06T00:21:54.433Z,77.26
2023-09-06T00:22:54.136Z,77.33
2023-09-06T00:23:53.333Z,77.22
2023-09-06T00:24:53.878Z,77.23
2023-09-06T00:25:54.659Z,77.24
2023-09-06T00:26:54.250Z,77.43
2023-09-06T00:27:54.042Z,77.44
2023-09-06T00:28:54.030Z,77.43
2023-09-06T00:29:53.529Z,77.41
2023-09-06T00:30:54.900Z,77.41
2023-09-06T00:31:54.674Z,77.48
2023-09-06T00:32:54.786Z,77.50
2023-09-06T00:33:54.699Z,77.51
2023-09-06T00:34:54.260Z,77.53
2023-09-06T00:35:53.873Z,77.57
2023-09-06T00:36:53.997Z,77.68
2023-09-06T00:37:53.410Z,77.67
2023-09-06T00:38:53.602Z,77.66
2023-09-06T00:39:54.193Z,77.86
2023-09-06T00:40:57.729Z,77.91
2023-09-06T00:41:54.830Z,77.96
2023-09-06T00:42:55.350Z,77.98
2023-09-06T00:43:54.306Z,77.80
2023-09-06T00:44:54.599Z,77.82
2023-09-06T00:45:55.122Z,77.72
2023-09-06T00:46:55.652Z,77.66
2023-09-06T00:47:54.750Z,77.66
2023-09-06T00:48:54.464Z,77.72
2023-09-06T00:49:54.323Z,77.81
2023-09-06T00:50:55.032Z,77.77
2023-09-06T00:51:54.124Z,77.75
2023-09-06T00:52:53.923Z,77.77
2023-09-06T00:53:54.255Z,77.86
2023-09-06T00:54:54.400Z,77.81
2023-09-06T00:55:54.850Z,77.94
2023-09-06T00:56:54.897Z,77.95
2023-09-06T00:57:54.601Z,77.89
2023-09-06T00:58:54.617Z,77.87
2023-09-06T00:59:54.222Z,77.96
2023-09-06T01:00:56.479Z,77.98
2023-09-06T01:01:54.865Z,78.00
2023-09-06T01:02:54.973Z,78.06
2023-09-06T01:03:55.219Z,78.07
2023-09-06T01:04:54.526Z,78.12
2023-09-06T01:05:54.995Z,78.16
2023-09-06T01:06:54.032Z,78.27
2023-09-06T01:07:53.625Z,78.27
2023-09-06T01:08:54.019Z,78.24
2023-09-06T01:09:53.872Z,78.12
2023-09-06T01:10:57.217Z,78.18
2023-09-06T01:11:53.735Z,78.30
2023-09-06T01:12:55.017Z,78.32
2023-09-06T01:13:54.414Z,78.25
2023-09-06T01:14:55.104Z,78.31
2023-09-06T01:15:54.885Z,78.45
2023-09-06T01:16:55.585Z,78.39
2023-09-06T01:17:54.810Z,78.46
2023-09-06T01:18:54.945Z,78.49
2023-09-06T01:19:53.701Z,78.42
2023-09-06T01:20:56.373Z,78.50
2023-09-06T01:21:54.295Z,78.40
2023-09-06T01:22:53.987Z,78.60
2023-09-06T01:23:53.509Z,78.83
2023-09-06T01:24:54.297Z,78.94
2023-09-06T01:25:54.296Z,79
2023-09-06T01:26:54.125Z,79.06
2023-09-06T01:27:54.040Z,79.10
2023-09-06T01:28:53.837Z,78.99
2023-09-06T01:29:54.799Z,79.02
2023-09-06T01:30:56.489Z,78.98
2023-09-06T01:31:54.685Z,78.99
2023-09-06T01:32:54.925Z,79.01
2023-09-06T01:33:55.376Z,78.99
2023-09-06T01:34:53.933Z,79.03
2023-09-06T01:35:55.168Z,79.26
2023-09-06T01:36:53.877Z,79.26
2023-09-06T01:37:54.524Z,79.27
2023-09-06T01:38:54.413Z,79.33
2023-09-06T01:39:54.158Z,79.16
2023-09-06T01:40:57.205Z,79.19
2023-09-06T01:41:54.484Z,79.38
2023-09-06T01:42:54.099Z,79.22
2023-09-06T01:43:53.490Z,79.24
2023-09-06T01:44:54.372Z,79.32
2023-09-06T01:45:54.692Z,79.21
2023-09-06T01:46:54.966Z,79.23
2023-09-06T01:47:53.241Z,79.43
2023-09-06T01:48:53.669Z,79.53
2023-09-06T01:49:53.860Z,79.44
2023-09-06T01:50:54.867Z,79.38
2023-09-06T01:51:54.633Z,79.42
2023-09-06T01:52:54.102Z,79.41
2023-09-06T01:53:53.568Z,79.41
2023-09-06T01:54:53.913Z,79.42
2023-09-06T01:55:54.234Z,79.42
2023-09-06T01:56:54.206Z,79.46
2023-09-06T01:57:54.134Z,79.54
2023-09-06T01:58:53.650Z,79.62
2023-09-06T01:59:53.998Z,79.61
2023-09-06T02:00:55.593Z,79.67
2023-09-06T02:01:54.409Z,79.79
2023-09-06T02:02:56.497Z,79.87
2023-09-06T02:03:57.073Z,79.92
2023-09-06T02:04:55.276Z,79.93
2023-09-06T02:05:53.822Z,79.92
2023-09-06T02:06:54.384Z,80
2023-09-06T02:07:54.049Z,79.86
2023-09-06T02:08:54.114Z,79.85
2023-09-06T02:09:54.522Z,79.83
2023-09-06T02:10:57.522Z,79.80
2023-09-06T02:11:54.616Z,79.94
2023-09-06T02:12:54.605Z,80.05
2023-09-06T02:13:54.462Z,80.20
2023-09-06T02:14:54.668Z,80.14
2023-09-06T02:15:55.218Z,80.05
2023-09-06T02:16:54.242Z,80.02
2023-09-06T02:17:54.293Z,80.10
2023-09-06T02:18:54.021Z,80.05
2023-09-06T02:19:53.493Z,80.03
2023-09-06T02:20:56.786Z,80.07
2023-09-06T02:21:54.368Z,80.00
2023-09-06T02:22:53.963Z,80.08
2023-09-06T02:23:54.295Z,80.16
2023-09-06T02:24:53.760Z,80.20
2023-09-06T02:25:54.672Z,80.19
2023-09-06T02:26:54.647Z,80.26
2023-09-06T02:27:54.100Z,80.19
2023-09-06T02:28:53.812Z,80.27
2023-09-06T02:29:54.201Z,80.27
2023-09-06T02:30:54.582Z,80.26
2023-09-06T02:31:54.131Z,80.26
2023-09-06T02:32:54.493Z,80.26
2023-09-06T02:33:54.940Z,80.14
2023-09-06T02:34:54.730Z,80.26
2023-09-06T02:35:54.746Z,80.25
2023-09-06T02:36:54.915Z,80.30
2023-09-06T02:37:54.583Z,80.35
2023-09-06T02:38:54.137Z,80.27
2023-09-06T02:39:53.797Z,80.26
2023-09-06T02:40:57.133Z,80.23
2023-09-06T02:41:54.148Z,80.22
2023-09-06T02:42:53.605Z,80.39
2023-09-06T02:43:54.778Z,80.51
2023-09-06T02:44:54.613Z,80.44
2023-09-06T02:45:55.555Z,80.47
2023-09-06T02:46:54.779Z,80.48
2023-09-06T02:47:54.802Z,80.56
2023-09-06T02:48:54.846Z,80.49
2023-09-06T02:49:54.898Z,80.52
2023-09-06T02:50:55.751Z,80.55
2023-09-06T02:51:54.673Z,80.76
2023-09-06T02:52:55.306Z,80.70
2023-09-06T02:53:54.271Z,80.68
2023-09-06T02:54:54.740Z,80.68
2023-09-06T02:55:55.294Z,80.56
2023-09-06T02:56:54.542Z,80.60
2023-09-06T02:57:55.686Z,80.68
2023-09-06T02:58:55.044Z,80.56
2023-09-06T02:59:55.325Z,80.57
2023-09-06T03:01:03.101Z,80.51
2023-09-06T03:01:56.538Z,80.55
2023-09-06T03:02:55.275Z,80.64
2023-09-06T03:03:55.452Z,80.48
2023-09-06T03:04:55.019Z,80.49
2023-09-06T03:05:54.238Z,80.63
2023-09-06T03:06:55.904Z,80.69
2023-09-06T03:07:55.157Z,80.66
2023-09-06T03:08:55.213Z,80.61
2023-09-06T03:09:54.526Z,80.58
2023-09-06T03:10:59.032Z,80.55
2023-09-06T03:11:55.284Z,80.45
2023-09-06T03:12:54.749Z,80.59
2023-09-06T03:13:54.962Z,80.67
2023-09-06T03:14:55.279Z,80.78
2023-09-06T03:15:54.602Z,80.76
2023-09-06T03:16:54.979Z,80.75
2023-09-06T03:17:54.269Z,80.73
2023-09-06T03:18:54.259Z,80.74
2023-09-06T03:19:54.209Z,80.79
2023-09-06T03:20:56.892Z,80.91
2023-09-06T03:21:55.842Z,80.96
2023-09-06T03:22:55.749Z,80.88
2023-09-06T03:23:54.618Z,80.86
2023-09-06T03:24:54.885Z,80.94
2023-09-06T03:25:55.991Z,80.91
2023-09-06T03:26:54.952Z,80.81
2023-09-06T03:27:55.027Z,80.70
2023-09-06T03:28:55.043Z,80.70
2023-09-06T03:29:54.363Z,80.86
2023-09-06T03:30:57.015Z,81.01
2023-09-06T03:31:55.638Z,80.99
2023-09-06T03:32:56.268Z,81.00
2023-09-06T03:33:56.223Z,80.95
2023-09-06T03:34:54.574Z,80.89
2023-09-06T03:35:54.653Z,80.91
2023-09-06T03:36:55.689Z,80.91
2023-09-06T03:37:54.772Z,80.85
2023-09-06T03:38:54.896Z,80.84
2023-09-06T03:39:55.130Z,80.83
2023-09-06T03:40:56.577Z,80.81
2023-09-06T03:41:55.283Z,80.90
2023-09-06T03:42:55.330Z,80.73
2023-09-06T03:43:54.385Z,80.76
2023-09-06T03:44:54.898Z,80.87
2023-09-06T03:45:55.792Z,80.89
2023-09-06T03:46:55.711Z,80.85
2023-09-06T03:47:56.040Z,80.91
2023-09-06T03:48:56.123Z,80.90
2023-09-06T03:49:53.819Z,80.87
2023-09-06T03:50:56.399Z,80.95
2023-09-06T03:51:54.990Z,81.14
2023-09-06T03:52:54.655Z,81.05
2023-09-06T03:53:55.089Z,81.06
2023-09-06T03:54:54.010Z,81.13
2023-09-06T03:55:57.952Z,81.14
2023-09-06T03:56:54.459Z,81.12
2023-09-06T03:57:54.947Z,81.11
2023-09-06T03:58:54.849Z,81.07
2023-09-06T03:59:54.548Z,81.14
2023-09-06T04:00:56.566Z,81.15
2023-09-06T04:01:55.307Z,81.22
2023-09-06T04:02:55.641Z,81.23
2023-09-06T04:03:56.181Z,81.34
2023-09-06T04:04:55.228Z,81.40
2023-09-06T04:05:54.901Z,81.46
2023-09-06T04:06:54.953Z,81.52
2023-09-06T04:07:54.772Z,81.45
2023-09-06T04:08:55.488Z,81.46
2023-09-06T04:09:55.143Z,81.43
2023-09-06T04:11:00.512Z,81.38
2023-09-06T04:11:54.648Z,81.45
2023-09-06T04:12:55.227Z,81.62
2023-09-06T04:13:54.605Z,81.81
2023-09-06T04:14:57.300Z,81.91
2023-09-06T04:15:56.249Z,81.84
2023-09-06T04:16:55.186Z,81.70
2023-09-06T04:17:54.540Z,81.71
2023-09-06T04:18:54.934Z,81.66
2023-09-06T04:19:54.312Z,81.67
2023-09-06T04:20:58.794Z,81.59
2023-09-06T04:21:55.481Z,81.58
2023-09-06T04:22:55.408Z,81.72
2023-09-06T04:23:55.363Z,81.79
2023-09-06T04:24:55.223Z,81.88
2023-09-06T04:25:55.927Z,81.81
2023-09-06T04:26:56.906Z,81.82
2023-09-06T04:27:56.283Z,81.82
2023-09-06T04:28:55.551Z,81.83
2023-09-06T04:29:54.845Z,81.76
2023-09-06T04:30:57.632Z,81.89
2023-09-06T04:31:55.882Z,81.97
2023-09-06T04:32:56.469Z,81.95
2023-09-06T04:33:57.307Z,81.87
2023-09-06T04:34:54.643Z,81.91
2023-09-06T04:35:55.509Z,81.78
2023-09-06T04:36:55.002Z,81.81
2023-09-06T04:37:53.876Z,81.83
2023-09-06T04:38:54.745Z,81.98
2023-09-06T04:39:54.573Z,81.93
2023-09-06T04:40:57.055Z,81.86
2023-09-06T04:41:54.228Z,81.76
2023-09-06T04:42:54.234Z,81.68
2023-09-06T04:43:54.168Z,81.78
2023-09-06T04:44:54.372Z,81.83
2023-09-06T04:45:55.361Z,81.90
2023-09-06T04:46:55.140Z,81.81
2023-09-06T04:47:54.607Z,81.87
2023-09-06T04:48:55.201Z,82.01
2023-09-06T04:49:54.655Z,81.97
2023-09-06T04:50:56.474Z,81.91
2023-09-06T04:51:54.709Z,81.87
2023-09-06T04:52:55.169Z,81.83
2023-09-06T04:53:54.819Z,81.75
2023-09-06T04:54:54.973Z,81.84
2023-09-06T04:55:54.807Z,82.02
2023-09-06T04:56:55.798Z,82.17
2023-09-06T04:57:55.040Z,82.20
2023-09-06T04:58:54.641Z,82.20
2023-09-06T04:59:54.988Z,82.08
2023-09-06T05:01:00.512Z,82.00
2023-09-06T05:01:54.333Z,81.95
2023-09-06T05:02:56.466Z,82.00
2023-09-06T05:03:55.136Z,82.02
2023-09-06T05:04:54.934Z,82.16
2023-09-06T05:05:55.825Z,82.21
2023-09-06T05:06:55.167Z,82.26
2023-09-06T05:07:54.277Z,82.31
2023-09-06T05:08:54.730Z,82.24
2023-09-06T05:09:54.920Z,82.24
2023-09-06T05:10:57.519Z,82.30
2023-09-06T05:11:55.732Z,82.37
2023-09-06T05:12:55.386Z,82.38
2023-09-06T05:13:54.629Z,82.33
2023-09-06T05:14:55.307Z,82.31
2023-09-06T05:15:55.083Z,82.37
2023-09-06T05:16:55.111Z,82.27
2023-09-06T05:17:54.493Z,82.18
2023-09-06T05:18:54.983Z,82.22
2023-09-06T05:19:54.640Z,82.26
2023-09-06T05:20:56.535Z,82.30
2023-09-06T05:21:55.152Z,82.29
2023-09-06T05:22:54.659Z,82.32
2023-09-06T05:23:54.975Z,82.34
2023-09-06T05:24:54.727Z,82.36
2023-09-06T05:25:55.658Z,82.40
2023-09-06T05:26:55.779Z,82.51
2023-09-06T05:27:55.877Z,82.56
2023-09-06T05:28:55.544Z,82.61
2023-09-06T05:29:55.057Z,82.59
2023-09-06T05:30:55.701Z,82.56
2023-09-06T05:31:55.511Z,82.48
2023-09-06T05:32:55.194Z,82.55
2023-09-06T05:33:56.037Z,82.49
2023-09-06T05:34:54.292Z,82.54
2023-09-06T05:35:55.504Z,82.53
2023-09-06T05:36:54.715Z,82.55
2023-09-06T05:37:55.784Z,82.58
2023-09-06T05:38:55.694Z,82.63
2023-09-06T05:39:55.256Z,82.58
2023-09-06T05:40:56.664Z,82.65
2023-09-06T05:41:55.081Z,82.73
2023-09-06T05:42:54.569Z,82.71
2023-09-06T05:43:55.302Z,82.67
2023-09-06T05:44:54.679Z,82.67
2023-09-06T05:45:55.828Z,82.73
2023-09-06T05:46:55.902Z,82.76
2023-09-06T05:47:54.901Z,82.73
2023-09-06T05:48:55.259Z,82.66
2023-09-06T05:49:54.623Z,82.58
2023-09-06T05:50:56.052Z,82.69
2023-09-06T05:51:54.890Z,82.85
2023-09-06T05:52:55.009Z,82.95
2023-09-06T05:53:54.333Z,82.90
2023-09-06T05:54:55.957Z,82.90
2023-09-06T05:55:55.262Z,83.00
2023-09-06T05:56:55.987Z,83.29
2023-09-06T05:57:54.734Z,83.43
2023-09-06T05:58:55.512Z,83.37
2023-09-06T05:59:55.226Z,83.42
2023-09-06T06:00:59.818Z,83.47
2023-09-06T06:01:56.004Z,83.44
2023-09-06T06:02:54.919Z,83.43
2023-09-06T06:03:56.111Z,83.68
2023-09-06T06:04:55.083Z,83.74
2023-09-06T06:05:56.081Z,83.70
2023-09-06T06:06:55.102Z,83.68
2023-09-06T06:07:55.645Z,83.64
2023-09-06T06:08:55.813Z,83.68
2023-09-06T06:09:55.612Z,83.82
2023-09-06T06:11:01.582Z,83.96
2023-09-06T06:11:55.738Z,84.10
2023-09-06T06:12:56.162Z,84.11
2023-09-06T06:14:04.854Z,84.20
2023-09-06T06:14:56.085Z,84.28
2023-09-06T06:15:55.696Z,84.27
2023-09-06T06:16:57.086Z,84.41
2023-09-06T06:17:55.941Z,84.39
2023-09-06T06:18:55.078Z,84.42
2023-09-06T06:19:54.744Z,84.45
2023-09-06T06:21:12.701Z,84.63
2023-09-06T06:22:00.549Z,84.78
2023-09-06T06:22:53.931Z,84.95
2023-09-06T06:23:55.454Z,84.75
2023-09-06T06:24:54.966Z,84.86
2023-09-06T06:25:56.132Z,84.83
2023-09-06T06:26:55.004Z,84.86
2023-09-06T06:27:55.044Z,84.72
2023-09-06T06:28:55.704Z,84.60
2023-09-06T06:29:54.989Z,84.64
2023-09-06T06:30:55.355Z,84.12
2023-09-06T06:31:55.070Z,83.87
2023-09-06T06:32:55.068Z,83.72
2023-09-06T06:33:55.338Z,83.51
2023-09-06T06:34:55.208Z,83.56
2023-09-06T06:35:56.107Z,83.34
2023-09-06T06:36:55.112Z,83.06
2023-09-06T06:37:54.405Z,83.01
2023-09-06T06:38:55.665Z,82.44
2023-09-06T06:39:55.269Z,82.09
2023-09-06T06:40:56.324Z,82.12
2023-09-06T06:41:55.115Z,81.68
2023-09-06T06:42:54.909Z,81.94
2023-09-06T06:43:55.647Z,82.29
2023-09-06T06:44:55.228Z,82.99
2023-09-06T06:45:55.571Z,83.25
2023-09-06T06:46:55.066Z,83.26
2023-09-06T06:47:55.204Z,83.05
2023-09-06T06:48:55.515Z,83.08
2023-09-06T06:49:55.637Z,83.44
2023-09-06T06:50:56.339Z,83.14
2023-09-06T06:51:55.305Z,83.20
2023-09-06T06:52:54.757Z,83.50
2023-09-06T06:53:55.533Z,83.49
2023-09-06T06:54:56.202Z,83.13
2023-09-06T06:55:56.007Z,83.18
2023-09-06T06:56:55.106Z,82.88
2023-09-06T06:57:54.833Z,82.61
2023-09-06T06:58:56.056Z,82.40
2023-09-06T06:59:54.359Z,82.35
2023-09-06T07:00:56.965Z,82.16
2023-09-06T07:01:55.327Z,81.90
2023-09-06T07:02:55.823Z,81.95
2023-09-06T07:03:56.582Z,81.81
2023-09-06T07:04:58.030Z,81.74
2023-09-06T07:05:55.296Z,81.58
2023-09-06T07:06:55.954Z,81.24
2023-09-06T07:07:56.104Z,81.17
2023-09-06T07:08:55.930Z,80.95
2023-09-06T07:09:55.374Z,80.92
2023-09-06T07:11:00.287Z,80.80
2023-09-06T07:11:54.924Z,80.84
2023-09-06T07:12:55.901Z,80.84
2023-09-06T07:13:55.669Z,80.78
2023-09-06T07:14:55.963Z,80.70
2023-09-06T07:15:56.835Z,80.76
2023-09-06T07:16:55.933Z,80.86
2023-09-06T07:17:55.196Z,81.09
2023-09-06T07:18:55.612Z,80.97
2023-09-06T07:19:55.535Z,80.78
2023-09-06T07:20:57.553Z,80.74
2023-09-06T07:21:55.435Z,80.62
2023-09-06T07:22:56.127Z,80.52
2023-09-06T07:23:54.756Z,80.56
2023-09-06T07:24:55.437Z,80.44
2023-09-06T07:25:55.732Z,80.27
2023-09-06T07:26:55.515Z,79.97
2023-09-06T07:27:55.532Z,79.76
2023-09-06T07:28:55.630Z,79.64
2023-09-06T07:29:55.364Z,79.82
2023-09-06T07:30:56.607Z,79.77
2023-09-06T07:31:55.545Z,79.26
2023-09-06T07:32:55.430Z,78.93
2023-09-06T07:33:56.030Z,79.02
2023-09-06T07:34:55.586Z,78.80
2023-09-06T07:35:56.049Z,78.26
2023-09-06T07:36:54.920Z,77.48
2023-09-06T07:37:55.809Z,77.23
2023-09-06T07:38:55.920Z,77.20
2023-09-06T07:39:56.006Z,76.87
2023-09-06T07:40:57.259Z,76.80
2023-09-06T07:41:55.386Z,76.68
2023-09-06T07:42:56.050Z,76.54
2023-09-06T07:43:55.083Z,76.59
2023-09-06T07:44:54.611Z,76.49
2023-09-06T07:45:55.991Z,76.52
2023-09-06T07:46:54.856Z,76.73
2023-09-06T07:47:56.254Z,76.48
2023-09-06T07:48:56.340Z,76.41
2023-09-06T07:49:55.128Z,76.09
2023-09-06T07:50:55.509Z,75.90
2023-09-06T07:51:55.287Z,75.88
2023-09-06T07:52:55.269Z,75.76
2023-09-06T07:53:55.048Z,75.49
2023-09-06T07:54:55.600Z,75.45
2023-09-06T07:55:55.747Z,75.37
2023-09-06T07:56:55.900Z,75.37
2023-09-06T07:57:55.344Z,75.23
2023-09-06T07:58:55.460Z,75.31
2023-09-06T07:59:55.680Z,75.01
2023-09-06T08:01:15.484Z,74.77
2023-09-06T08:01:55.915Z,74.99
2023-09-06T08:02:55.616Z,75.03
2023-09-06T08:03:56.419Z,74.84
2023-09-06T08:04:55.787Z,74.84
2023-09-06T08:05:56.321Z,74.93
2023-09-06T08:06:55.540Z,75.01
2023-09-06T08:07:55.309Z,75.16
2023-09-06T08:08:56.008Z,75.08
2023-09-06T08:09:55.188Z,74.91
2023-09-06T08:10:58.029Z,74.75
2023-09-06T08:11:55.474Z,74.51
2023-09-06T08:12:56.039Z,74.39
2023-09-06T08:13:55.361Z,74.23
2023-09-06T08:14:56.318Z,74.01
2023-09-06T08:15:56.426Z,74.08
2023-09-06T08:16:55.380Z,74.51
2023-09-06T08:17:56.167Z,74.37
2023-09-06T08:18:56.491Z,73.48
2023-09-06T08:19:55.921Z,73.05
2023-09-06T08:20:57.997Z,73.29
2023-09-06T08:21:55.741Z,73.37
2023-09-06T08:23:13.263Z,72.92
2023-09-06T08:24:01.106Z,72.52
2023-09-06T08:24:55.600Z,72.33
2023-09-06T08:25:56.556Z,72.24
2023-09-06T08:26:57.068Z,71.89
2023-09-06T08:27:55.435Z,71.86
2023-09-06T08:28:55.992Z,71.94
2023-09-06T08:29:55.112Z,72.15
2023-09-06T08:30:56.628Z,72.01
2023-09-06T08:31:56.674Z,71.94
2023-09-06T08:32:56.119Z,71.44
2023-09-06T08:33:55.909Z,71.32
2023-09-06T08:34:55.381Z,71.23
2023-09-06T08:35:56.436Z,70.89
2023-09-06T08:36:57.088Z,70.73
2023-09-06T08:37:55.534Z,70.74
2023-09-06T08:38:59.043Z,70.45
2023-09-06T08:39:57.016Z,70.26
2023-09-06T08:41:03.425Z,70.00
2023-09-06T08:41:59.224Z,69.86
2023-09-06T08:42:56.204Z,69.98
2023-09-06T08:43:55.050Z,69.82
2023-09-06T08:44:55.558Z,69.84
2023-09-06T08:45:59.131Z,69.63
2023-09-06T08:46:55.771Z,69.48
2023-09-06T08:47:56.234Z,69.14
2023-09-06T08:48:56.494Z,69.27
2023-09-06T08:49:55.845Z,69.48
2023-09-06T08:50:57.600Z,69.62
2023-09-06T08:51:55.968Z,69.33
2023-09-06T08:52:55.575Z,69.06
2023-09-06T08:53:56.627Z,68.81
2023-09-06T08:54:56.084Z,68.73
2023-09-06T08:55:56.240Z,68.83
2023-09-06T08:56:55.645Z,68.62
2023-09-06T08:57:55.368Z,68.65
2023-09-06T08:58:56.238Z,69.05
2023-09-06T08:59:55.435Z,68.87
2023-09-06T09:00:59.098Z,68.19
2023-09-06T09:01:56.078Z,68.12
2023-09-06T09:02:55.851Z,68.41
2023-09-06T09:03:57.449Z,68.61
2023-09-06T09:05:05.931Z,68.74
2023-09-06T09:05:56.703Z,68.16
2023-09-06T09:06:55.888Z,67.74
2023-09-06T09:07:55.782Z,67.23
2023-09-06T09:08:56.158Z,66.76
2023-09-06T09:09:55.555Z,66.55
2023-09-06T09:11:00.841Z,66.70
2023-09-06T09:11:55.338Z,66.79
2023-09-06T09:12:55.796Z,66.77
2023-09-06T09:13:56.145Z,67.41
2023-09-06T09:14:55.237Z,67.04
2023-09-06T09:15:57.778Z,66.65
2023-09-06T09:16:56.114Z,67.06
2023-09-06T09:18:09.257Z,66.91
2023-09-06T09:18:59.570Z,66.09
2023-09-06T09:20:00.315Z,65.77
2023-09-06T09:20:56.821Z,65.50
2023-09-06T09:21:57.958Z,65.45
2023-09-06T09:22:58.872Z,65.41
2023-09-06T09:23:58.875Z,65.00
2023-09-06T09:24:58.680Z,64.92
2023-09-06T09:26:02.771Z,64.62
2023-09-06T09:26:59.638Z,64.38
2023-09-06T09:27:58.291Z,64.12
2023-09-06T09:29:00.711Z,64.13
2023-09-06T09:30:00.033Z,63.88
2023-09-06T09:31:08.175Z,63.63
2023-09-06T09:32:06.333Z,63.52
2023-09-06T09:33:06.104Z,63.30
2023-09-06T09:34:02.046Z,63.22
2023-09-06T09:35:00.926Z,62.74
2023-09-06T09:36:02.709Z,62.45
2023-09-06T09:36:58.829Z,62.42
2023-09-06T09:38:00.824Z,62.58
2023-09-06T09:38:58.776Z,62.06
2023-09-06T09:39:59.152Z,61.79
2023-09-06T09:41:27.488Z,61.86
2023-09-06T09:42:33.638Z,61.72
2023-09-06T09:43:27.221Z,61.95
2023-09-06T09:44:20.884Z,61.49
2023-09-06T09:45:16.014Z,61.11
2023-09-06T09:46:12.788Z,60.59
2023-09-06T09:47:28.524Z,60.63
2023-09-06T09:48:24.288Z,60.52
2023-09-06T09:49:17.310Z,60.50
2023-09-06T09:50:13.742Z,60.75
2023-09-06T09:51:12.815Z,60.43
2023-09-06T09:52:04.737Z,59.61
2023-09-06T09:53:15.073Z,59.31
2023-09-06T09:53:59.855Z,59.33
2023-09-06T09:55:00.637Z,59.19
2023-09-06T09:55:59.933Z,59.30
2023-09-06T09:57:02.270Z,59.50
2023-09-06T09:58:01.277Z,59.66
2023-09-06T09:59:00.101Z,59.38
2023-09-06T09:59:58.285Z,59.09
2023-09-06T10:01:09.530Z,58.84
2023-09-06T10:02:03.622Z,58.77
2023-09-06T10:03:09.320Z,59.00
2023-09-06T10:04:06.035Z,59.35
2023-09-06T10:05:05.162Z,59.26
2023-09-06T10:06:01.792Z,59.31
2023-09-06T10:06:59.967Z,59.69
2023-09-06T10:08:19.241Z,59.29
2023-09-06T10:09:15.986Z,58.56
2023-09-06T10:10:13.439Z,58.56
2023-09-06T10:11:15.463Z,59.16
2023-09-06T10:12:14.279Z,58.95
2023-09-06T10:13:12.948Z,58.84
2023-09-06T10:14:02.894Z,58.25
2023-09-06T10:15:02.174Z,57.95
2023-09-06T10:16:01.511Z,56.47
2023-09-06T10:16:59.928Z,56.66
2023-09-06T10:17:59.446Z,56.86
2023-09-06T10:18:59.892Z,57.14
2023-09-06T10:20:27.985Z,57.15
2023-09-06T10:21:27.400Z,57.13
2023-09-06T10:22:20.394Z,57.48
2023-09-06T10:23:14.011Z,57.29
2023-09-06T10:24:10.662Z,57.12
2023-09-06T10:25:06.837Z,57.04
2023-09-06T10:26:05.202Z,56.74
2023-09-06T10:27:02.196Z,56.51
2023-09-06T10:27:58.729Z,56.40
2023-09-06T10:29:01.139Z,56.25
2023-09-06T10:30:04.746Z,55.61
2023-09-06T10:31:05.092Z,55.18
2023-09-06T10:32:01.532Z,55.31
2023-09-06T10:33:13.177Z,55.83
2023-09-06T10:34:14.103Z,56.18
2023-09-06T10:35:10.852Z,55.31
2023-09-06T10:36:09.420Z,55.13
2023-09-06T10:37:11.222Z,55.04
2023-09-06T10:38:11.199Z,55.02
2023-09-06T10:39:04.301Z,54.50
2023-09-06T10:39:59.856Z,53.97
2023-09-06T10:41:14.172Z,54.75
2023-09-06T10:42:09.627Z,54.90
2023-09-06T10:43:03.337Z,55.36
2023-09-06T10:44:00.090Z,54.02
2023-09-06T10:45:00.316Z,54.5
2023-09-06T10:46:01.546Z,54.77
2023-09-06T10:47:01.386Z,54.43
2023-09-06T10:48:02.042Z,54.27
2023-09-06T10:49:00.729Z,54.44
2023-09-06T10:50:00.582Z,54.83
2023-09-06T10:51:01.718Z,55.02
2023-09-06T10:51:58.048Z,54.31
2023-09-06T10:53:00.674Z,54.35
2023-09-06T10:53:58.585Z,54.27
2023-09-06T10:54:59.959Z,53.94
2023-09-06T10:56:01.940Z,54.07
2023-09-06T10:57:00.580Z,53.49
2023-09-06T10:57:59.756Z,53.00
2023-09-06T10:59:02.155Z,52.29
2023-09-06T10:59:58.653Z,52.02
2023-09-06T11:01:14.144Z,52.21
2023-09-06T11:02:27.054Z,51.45
2023-09-06T11:03:21.342Z,51.19
2023-09-06T11:04:16.190Z,51.13
2023-09-06T11:05:11.977Z,50.84
2023-09-06T11:06:05.393Z,50.81
2023-09-06T11:07:02.912Z,50.40
2023-09-06T11:08:19.845Z,50.56
2023-09-06T11:09:14.323Z,50.86
2023-09-06T11:10:10.210Z,50.77
2023-09-06T11:11:17.085Z,50.71
2023-09-06T11:12:13.122Z,51.03
2023-09-06T11:13:11.315Z,50.96
2023-09-06T11:14:03.576Z,50.31
2023-09-06T11:15:01.459Z,50.15
2023-09-06T11:16:01.721Z,49.75
2023-09-06T11:16:58.499Z,49.65
2023-09-06T11:18:00.004Z,49.55
2023-09-06T11:18:59.792Z,49.36
2023-09-06T11:19:58.261Z,49.44
2023-09-06T11:21:05.242Z,49.44
2023-09-06T11:22:00.922Z,49.64
2023-09-06T11:22:59.311Z,49.52
2023-09-06T11:23:58.390Z,49.51
2023-09-06T11:24:59.568Z,49.18
2023-09-06T11:26:00.883Z,49.20
2023-09-06T11:26:59.849Z,49
2023-09-06T11:27:58.141Z,48.61
2023-09-06T11:29:00.022Z,48.36
2023-09-06T11:29:57.367Z,48.43
2023-09-06T11:31:04.195Z,49.01
2023-09-06T11:31:59.829Z,48.81
2023-09-06T11:32:59.797Z,48.81
2023-09-06T11:33:59.636Z,48.71
2023-09-06T11:35:00.323Z,48.83
2023-09-06T11:36:00.455Z,49.00
2023-09-06T11:36:59.271Z,49
2023-09-06T11:37:58.350Z,49.49
2023-09-06T11:38:58.841Z,49.60
2023-09-06T11:39:59.592Z,49.70
2023-09-06T11:41:12.720Z,49.18
2023-09-06T11:42:10.954Z,48.60
2023-09-06T11:43:01.720Z,48.91
2023-09-06T11:43:57.353Z,49.11
2023-09-06T11:44:58.834Z,49.18
2023-09-06T11:45:59.545Z,49.44
2023-09-06T11:47:00.167Z,49.14
2023-09-06T11:47:57.943Z,49.29
2023-09-06T11:48:56.283Z,49.22
2023-09-06T11:49:58.368Z,49.48
2023-09-06T11:51:01.282Z,49.20
2023-09-06T11:51:57.340Z,48.56
2023-09-06T11:53:21.001Z,48.40
2023-09-06T11:54:13.239Z,48.58
2023-09-06T11:55:02.231Z,48.64
2023-09-06T11:55:59.507Z,49.11
2023-09-06T11:56:58.639Z,49.08
2023-09-06T11:57:57.518Z,48.79
2023-09-06T11:58:57.943Z,48.89
2023-09-06T11:59:57.262Z,48.88
2023-09-06T12:01:03.155Z,48.78
2023-09-06T12:01:57.401Z,48.95
2023-09-06T12:02:57.240Z,49.00
2023-09-06T12:03:57.221Z,48.59
2023-09-06T12:04:58.027Z,48.16
2023-09-06T12:06:19.520Z,48.27
2023-09-06T12:07:13.635Z,48.58
2023-09-06T12:08:02.724Z,48.35
2023-09-06T12:08:58.417Z,48.43
2023-09-06T12:09:58.058Z,48.71
2023-09-06T12:11:14.664Z,49.15
2023-09-06T12:12:05.864Z,48.99
2023-09-06T12:12:59.060Z,48.30
2023-09-06T12:13:55.240Z,48.30
2023-09-06T12:14:56.502Z,47.86
2023-09-06T12:15:57.350Z,47.84
2023-09-06T12:16:56.880Z,48.20
2023-09-06T12:17:57.721Z,47.72
2023-09-06T12:18:57.551Z,47.50
2023-09-06T12:19:56.441Z,47.73
2023-09-06T12:21:01.445Z,48.09
2023-09-06T12:21:57.627Z,48.03
2023-09-06T12:22:56.782Z,48.08
2023-09-06T12:24:00.955Z,48.34
2023-09-06T12:24:56.669Z,49.09
2023-09-06T12:25:57.540Z,49.50
2023-09-06T12:26:57.407Z,48.95
2023-09-06T12:27:56.108Z,48.29
2023-09-06T12:28:58.531Z,48.43
2023-09-06T12:29:56.539Z,48.56
2023-09-06T12:30:59.233Z,48.31
2023-09-06T12:31:56.638Z,48.03
2023-09-06T12:32:58.624Z,48.06
2023-09-06T12:33:58.061Z,48.06
2023-09-06T12:34:56.722Z,48.10
2023-09-06T12:35:58.816Z,47.97
2023-09-06T12:36:57.209Z,47.84
2023-09-06T12:37:56.376Z,47.55
2023-09-06T12:38:57.396Z,47.34
2023-09-06T12:39:56.421Z,47.27
2023-09-06T12:41:01.481Z,47.31
2023-09-06T12:41:57.927Z,47.23
2023-09-06T12:42:57.466Z,47.34
2023-09-06T12:43:56.510Z,46.99
2023-09-06T12:44:57.705Z,46.93
2023-09-06T12:45:58.686Z,46.78
2023-09-06T12:46:57.731Z,46.82
2023-09-06T12:47:57.162Z,46.81
2023-09-06T12:48:58.882Z,46.92
2023-09-06T12:49:57.300Z,47.19
2023-09-06T12:51:01.874Z,47.33
2023-09-06T12:51:57.202Z,47.33
2023-09-06T12:52:57.218Z,47.01
2023-09-06T12:53:57.186Z,46.91